sensor_id;sensor_type;location;lat;lon;timestamp;temperature;humidity
24146;DHT22;12308;50.948;4.706;2023-03-01T00:01:23;0.80;99.90
24146;DHT22;12308;50.948;4.706;2023-03-01T00:03:49;0.70;99.90
24146;DHT22;12308;50.948;4.706;2023-03-01T00:06:16;0.70;99.90
24146;DHT22;12308;50.948;4.706;2023-03-01T00:08:42;0.70;99.90
24146;DHT22;12308;50.948;4.706;2023-03-01T00:11:12;0.60;99.90
24146;DHT22;12308;50.948;4.706;2023-03-01T00:13:38;0.50;99.90
24146;DHT22;12308;50.948;4.706;2023-03-01T00:16:05;0.50;99.90
24146;DHT22;12308;50.948;4.706;2023-03-01T00:18:31;0.50;99.90
24146;DHT22;12308;50.948;4.706;2023-03-01T00:20:56;0.70;99.90
24146;DHT22;12308;50.948;4.706;2023-03-01T00:23:22;0.60;99.90
24146;DHT22;12308;50.948;4.706;2023-03-01T00:25:49;0.40;99.90
24146;DHT22;12308;50.948;4.706;2023-03-01T00:28:15;0.40;99.90
24146;DHT22;12308;50.948;4.706;2023-03-01T00:30:40;0.40;99.90
24146;DHT22;12308;50.948;4.706;2023-03-01T00:33:06;0.30;99.90
24146;DHT22;12308;50.948;4.706;2023-03-01T00:35:33;0.40;99.90
24146;DHT22;12308;50.948;4.706;2023-03-01T00:37:58;0.30;99.90
24146;DHT22;12308;50.948;4.706;2023-03-01T00:40:25;0.30;99.90
24146;DHT22;12308;50.948;4.706;2023-03-01T00:42:51;0.20;99.90
24146;DHT22;12308;50.948;4.706;2023-03-01T00:45:17;0.40;99.90
24146;DHT22;12308;50.948;4.706;2023-03-01T00:47:43;0.40;99.90
24146;DHT22;12308;50.948;4.706;2023-03-01T00:50:10;0.40;99.90
24146;DHT22;12308;50.948;4.706;2023-03-01T00:52:36;0.20;99.90
24146;DHT22;12308;50.948;4.706;2023-03-01T00:55:02;0.00;99.90
24146;DHT22;12308;50.948;4.706;2023-03-01T00:57:28;0.10;99.90
24146;DHT22;12308;50.948;4.706;2023-03-01T00:59:54;0.10;99.90
24146;DHT22;12308;50.948;4.706;2023-03-01T01:02:20;0.10;99.90
24146;DHT22;12308;50.948;4.706;2023-03-01T01:04:46;0.20;99.90
24146;DHT22;12308;50.948;4.706;2023-03-01T01:07:13;0.20;99.90
24146;DHT22;12308;50.948;4.706;2023-03-01T01:09:38;0.20;99.90
24146;DHT22;12308;50.948;4.706;2023-03-01T01:12:05;0.30;99.90
24146;DHT22;12308;50.948;4.706;2023-03-01T01:14:30;0.40;99.90
24146;DHT22;12308;50.948;4.706;2023-03-01T01:16:56;0.50;99.90
24146;DHT22;12308;50.948;4.706;2023-03-01T01:19:23;0.60;99.90
24146;DHT22;12308;50.948;4.706;2023-03-01T01:21:49;0.60;99.90
24146;DHT22;12308;50.948;4.706;2023-03-01T01:24:15;0.60;99.90
24146;DHT22;12308;50.948;4.706;2023-03-01T01:26:41;0.50;99.90
24146;DHT22;12308;50.948;4.706;2023-03-01T01:29:08;0.60;99.90
24146;DHT22;12308;50.948;4.706;2023-03-01T01:31:35;0.50;99.90
24146;DHT22;12308;50.948;4.706;2023-03-01T01:34:02;0.30;99.90
24146;DHT22;12308;50.948;4.706;2023-03-01T01:36:28;0.30;99.90
24146;DHT22;12308;50.948;4.706;2023-03-01T01:38:53;0.30;99.90
24146;DHT22;12308;50.948;4.706;2023-03-01T01:41:20;0.10;99.90
24146;DHT22;12308;50.948;4.706;2023-03-01T01:46:39;-0.10;99.90
24146;DHT22;12308;50.948;4.706;2023-03-01T01:49:11;-0.20;99.90
24146;DHT22;12308;50.948;4.706;2023-03-01T01:51:42;-0.30;99.90
24146;DHT22;12308;50.948;4.706;2023-03-01T01:54:12;-0.30;99.90
24146;DHT22;12308;50.948;4.706;2023-03-01T01:56:41;-0.40;99.90
24146;DHT22;12308;50.948;4.706;2023-03-01T01:59:09;-0.40;99.90
24146;DHT22;12308;50.948;4.706;2023-03-01T02:01:34;-0.50;99.90
24146;DHT22;12308;50.948;4.706;2023-03-01T02:04:00;-0.70;99.90
24146;DHT22;12308;50.948;4.706;2023-03-01T02:06:45;-0.60;99.90
24146;DHT22;12308;50.948;4.706;2023-03-01T02:09:16;-0.60;99.90
24146;DHT22;12308;50.948;4.706;2023-03-01T02:11:44;-0.70;99.90
24146;DHT22;12308;50.948;4.706;2023-03-01T02:14:10;-0.70;99.90
24146;DHT22;12308;50.948;4.706;2023-03-01T02:16:35;-0.70;99.90
24146;DHT22;12308;50.948;4.706;2023-03-01T02:19:03;-0.70;99.90
24146;DHT22;12308;50.948;4.706;2023-03-01T02:21:35;-0.60;99.90
24146;DHT22;12308;50.948;4.706;2023-03-01T02:24:35;-0.70;99.90
24146;DHT22;12308;50.948;4.706;2023-03-01T02:27:01;-0.50;99.90
24146;DHT22;12308;50.948;4.706;2023-03-01T02:29:28;-0.40;99.90
24146;DHT22;12308;50.948;4.706;2023-03-01T02:31:54;-0.50;99.90
24146;DHT22;12308;50.948;4.706;2023-03-01T02:34:24;-0.50;99.90
24146;DHT22;12308;50.948;4.706;2023-03-01T02:37:01;-0.40;99.90
24146;DHT22;12308;50.948;4.706;2023-03-01T02:39:45;-0.40;99.90
24146;DHT22;12308;50.948;4.706;2023-03-01T02:42:18;-0.60;99.90
24146;DHT22;12308;50.948;4.706;2023-03-01T02:44:45;-0.70;99.90
24146;DHT22;12308;50.948;4.706;2023-03-01T02:47:11;-0.80;99.90
24146;DHT22;12308;50.948;4.706;2023-03-01T02:49:37;-0.80;99.90
24146;DHT22;12308;50.948;4.706;2023-03-01T02:52:40;-0.70;99.90
24146;DHT22;12308;50.948;4.706;2023-03-01T02:55:11;-0.70;99.90
24146;DHT22;12308;50.948;4.706;2023-03-01T02:57:40;-0.80;99.90
24146;DHT22;12308;50.948;4.706;2023-03-01T03:00:10;-0.90;99.90
24146;DHT22;12308;50.948;4.706;2023-03-01T03:02:45;-1.00;99.90
24146;DHT22;12308;50.948;4.706;2023-03-01T03:05:16;-1.10;99.90
24146;DHT22;12308;50.948;4.706;2023-03-01T03:07:45;-1.10;99.90
24146;DHT22;12308;50.948;4.706;2023-03-01T03:10:26;-1.10;99.90
24146;DHT22;12308;50.948;4.706;2023-03-01T03:12:55;-1.00;99.90
24146;DHT22;12308;50.948;4.706;2023-03-01T03:15:22;-0.90;99.90
24146;DHT22;12308;50.948;4.706;2023-03-01T03:17:48;-1.00;99.90
24146;DHT22;12308;50.948;4.706;2023-03-01T03:20:16;-1.00;99.90
24146;DHT22;12308;50.948;4.706;2023-03-01T03:22:48;-0.90;99.90
24146;DHT22;12308;50.948;4.706;2023-03-01T03:25:15;-1.00;99.90
24146;DHT22;12308;50.948;4.706;2023-03-01T03:27:42;-1.00;99.90
24146;DHT22;12308;50.948;4.706;2023-03-01T03:30:11;-1.00;99.90
24146;DHT22;12308;50.948;4.706;2023-03-01T03:32:41;-1.10;99.90
24146;DHT22;12308;50.948;4.706;2023-03-01T03:35:09;-1.00;99.90
24146;DHT22;12308;50.948;4.706;2023-03-01T03:37:39;-0.90;99.90
24146;DHT22;12308;50.948;4.706;2023-03-01T03:40:25;-0.70;99.90
24146;DHT22;12308;50.948;4.706;2023-03-01T03:42:51;-0.40;99.90
24146;DHT22;12308;50.948;4.706;2023-03-01T03:45:17;-0.30;99.90
24146;DHT22;12308;50.948;4.706;2023-03-01T03:47:43;-0.30;99.90
24146;DHT22;12308;50.948;4.706;2023-03-01T03:50:11;-0.30;99.90
24146;DHT22;12308;50.948;4.706;2023-03-01T03:52:37;-0.10;99.90
24146;DHT22;12308;50.948;4.706;2023-03-01T03:55:04;0.00;99.90
24146;DHT22;12308;50.948;4.706;2023-03-01T03:57:35;0.00;99.90
24146;DHT22;12308;50.948;4.706;2023-03-01T04:00:01;-0.10;99.90
24146;DHT22;12308;50.948;4.706;2023-03-01T04:02:30;-0.20;99.90
24146;DHT22;12308;50.948;4.706;2023-03-01T04:04:56;-0.30;99.90
24146;DHT22;12308;50.948;4.706;2023-03-01T04:07:22;-0.40;99.90
24146;DHT22;12308;50.948;4.706;2023-03-01T04:09:47;-0.60;99.90
24146;DHT22;12308;50.948;4.706;2023-03-01T04:12:13;-0.80;99.90
24146;DHT22;12308;50.948;4.706;2023-03-01T04:14:38;-0.90;99.90
24146;DHT22;12308;50.948;4.706;2023-03-01T04:17:04;-0.90;99.90
24146;DHT22;12308;50.948;4.706;2023-03-01T04:19:31;-1.00;99.90
24146;DHT22;12308;50.948;4.706;2023-03-01T04:22:04;-1.20;99.90
24146;DHT22;12308;50.948;4.706;2023-03-01T04:24:35;-1.20;99.90
24146;DHT22;12308;50.948;4.706;2023-03-01T04:27:01;-1.10;99.90
24146;DHT22;12308;50.948;4.706;2023-03-01T04:29:27;-1.20;99.90
24146;DHT22;12308;50.948;4.706;2023-03-01T04:31:52;-1.20;99.90
24146;DHT22;12308;50.948;4.706;2023-03-01T04:34:18;-1.40;99.90
24146;DHT22;12308;50.948;4.706;2023-03-01T04:36:44;-1.30;99.90
24146;DHT22;12308;50.948;4.706;2023-03-01T04:39:09;-1.30;99.90
24146;DHT22;12308;50.948;4.706;2023-03-01T04:41:39;-1.30;99.90
24146;DHT22;12308;50.948;4.706;2023-03-01T04:44:08;-1.30;99.90
24146;DHT22;12308;50.948;4.706;2023-03-01T04:46:35;-1.30;99.90
24146;DHT22;12308;50.948;4.706;2023-03-01T04:49:02;-1.10;99.90
24146;DHT22;12308;50.948;4.706;2023-03-01T04:51:28;-0.70;99.90
24146;DHT22;12308;50.948;4.706;2023-03-01T04:53:54;-0.50;99.90
24146;DHT22;12308;50.948;4.706;2023-03-01T04:56:19;-0.50;99.90
24146;DHT22;12308;50.948;4.706;2023-03-01T04:58:46;-0.50;99.90
24146;DHT22;12308;50.948;4.706;2023-03-01T05:01:15;-0.50;99.90
24146;DHT22;12308;50.948;4.706;2023-03-01T05:03:43;-0.40;99.90
24146;DHT22;12308;50.948;4.706;2023-03-01T05:06:09;-0.50;99.90
24146;DHT22;12308;50.948;4.706;2023-03-01T05:08:37;-0.70;99.90
24146;DHT22;12308;50.948;4.706;2023-03-01T05:11:03;-0.60;99.90
24146;DHT22;12308;50.948;4.706;2023-03-01T05:13:28;-0.60;99.90
24146;DHT22;12308;50.948;4.706;2023-03-01T05:16:00;-0.70;99.90
24146;DHT22;12308;50.948;4.706;2023-03-01T05:18:27;-0.60;99.90
24146;DHT22;12308;50.948;4.706;2023-03-01T05:21:08;-0.40;99.90
24146;DHT22;12308;50.948;4.706;2023-03-01T05:23:34;-0.50;99.90
24146;DHT22;12308;50.948;4.706;2023-03-01T05:26:02;-0.60;99.90
24146;DHT22;12308;50.948;4.706;2023-03-01T05:28:30;-0.60;99.90
24146;DHT22;12308;50.948;4.706;2023-03-01T05:30:56;-0.60;99.90
24146;DHT22;12308;50.948;4.706;2023-03-01T05:33:22;-0.60;99.90
24146;DHT22;12308;50.948;4.706;2023-03-01T05:35:49;-0.50;99.90
24146;DHT22;12308;50.948;4.706;2023-03-01T05:38:16;-0.60;99.90
24146;DHT22;12308;50.948;4.706;2023-03-01T05:40:43;-0.70;99.90
24146;DHT22;12308;50.948;4.706;2023-03-01T05:43:09;-0.80;99.90
24146;DHT22;12308;50.948;4.706;2023-03-01T05:45:37;-1.00;99.90
24146;DHT22;12308;50.948;4.706;2023-03-01T05:48:04;-1.00;99.90
24146;DHT22;12308;50.948;4.706;2023-03-01T05:50:34;-1.10;99.90
24146;DHT22;12308;50.948;4.706;2023-03-01T05:53:05;-1.10;99.90
24146;DHT22;12308;50.948;4.706;2023-03-01T05:55:33;-1.00;99.90
24146;DHT22;12308;50.948;4.706;2023-03-01T05:58:06;-0.90;99.90
24146;DHT22;12308;50.948;4.706;2023-03-01T06:00:32;-0.80;99.90
24146;DHT22;12308;50.948;4.706;2023-03-01T06:02:59;-0.70;99.90
24146;DHT22;12308;50.948;4.706;2023-03-01T06:05:25;-0.80;99.90
24146;DHT22;12308;50.948;4.706;2023-03-01T06:07:51;-0.80;99.90
24146;DHT22;12308;50.948;4.706;2023-03-01T06:10:20;-0.80;99.90
24146;DHT22;12308;50.948;4.706;2023-03-01T06:12:45;-0.90;99.90
24146;DHT22;12308;50.948;4.706;2023-03-01T06:15:13;-0.70;99.90
24146;DHT22;12308;50.948;4.706;2023-03-01T06:17:41;-0.70;99.90
24146;DHT22;12308;50.948;4.706;2023-03-01T06:20:21;-0.70;99.90
24146;DHT22;12308;50.948;4.706;2023-03-01T06:22:47;-0.70;99.90
24146;DHT22;12308;50.948;4.706;2023-03-01T06:25:16;-0.70;99.90
24146;DHT22;12308;50.948;4.706;2023-03-01T06:27:42;-0.70;99.90
24146;DHT22;12308;50.948;4.706;2023-03-01T06:30:10;-0.80;99.90
24146;DHT22;12308;50.948;4.706;2023-03-01T06:32:37;-1.10;99.90
24146;DHT22;12308;50.948;4.706;2023-03-01T06:35:04;-1.20;99.90
24146;DHT22;12308;50.948;4.706;2023-03-01T06:37:30;-1.20;99.90
24146;DHT22;12308;50.948;4.706;2023-03-01T06:39:56;-1.40;99.90
24146;DHT22;12308;50.948;4.706;2023-03-01T06:42:21;-1.60;99.90
24146;DHT22;12308;50.948;4.706;2023-03-01T06:44:47;-1.70;99.90
24146;DHT22;12308;50.948;4.706;2023-03-01T06:47:13;-1.70;99.90
24146;DHT22;12308;50.948;4.706;2023-03-01T06:49:38;-1.70;99.90
24146;DHT22;12308;50.948;4.706;2023-03-01T06:52:04;-1.70;99.90
24146;DHT22;12308;50.948;4.706;2023-03-01T06:54:30;-1.70;99.90
24146;DHT22;12308;50.948;4.706;2023-03-01T06:56:55;-1.60;99.90
24146;DHT22;12308;50.948;4.706;2023-03-01T06:59:21;-1.60;99.90
24146;DHT22;12308;50.948;4.706;2023-03-01T07:01:47;-1.70;99.90
24146;DHT22;12308;50.948;4.706;2023-03-01T07:04:13;-1.60;99.90
24146;DHT22;12308;50.948;4.706;2023-03-01T07:06:39;-1.60;99.90
24146;DHT22;12308;50.948;4.706;2023-03-01T07:09:05;-1.60;99.90
24146;DHT22;12308;50.948;4.706;2023-03-01T07:11:30;-1.70;99.90
24146;DHT22;12308;50.948;4.706;2023-03-01T07:13:56;-1.60;99.90
24146;DHT22;12308;50.948;4.706;2023-03-01T07:16:23;-1.30;99.90
24146;DHT22;12308;50.948;4.706;2023-03-01T07:18:49;-1.00;99.90
24146;DHT22;12308;50.948;4.706;2023-03-01T07:21:15;-0.80;99.90
24146;DHT22;12308;50.948;4.706;2023-03-01T07:23:41;-0.70;99.90
24146;DHT22;12308;50.948;4.706;2023-03-01T07:26:07;-0.50;99.90
24146;DHT22;12308;50.948;4.706;2023-03-01T07:28:33;-0.40;99.90
24146;DHT22;12308;50.948;4.706;2023-03-01T07:31:04;-0.30;99.90
24146;DHT22;12308;50.948;4.706;2023-03-01T07:33:31;-0.20;99.90
24146;DHT22;12308;50.948;4.706;2023-03-01T07:36:01;-0.20;99.90
24146;DHT22;12308;50.948;4.706;2023-03-01T07:38:28;-0.10;99.90
24146;DHT22;12308;50.948;4.706;2023-03-01T07:40:58;0.10;99.90
24146;DHT22;12308;50.948;4.706;2023-03-01T07:43:24;0.10;99.90
24146;DHT22;12308;50.948;4.706;2023-03-01T07:45:50;0.20;99.90
24146;DHT22;12308;50.948;4.706;2023-03-01T07:48:15;0.20;99.90
24146;DHT22;12308;50.948;4.706;2023-03-01T07:50:41;0.20;99.90
24146;DHT22;12308;50.948;4.706;2023-03-01T07:53:07;0.30;99.90
24146;DHT22;12308;50.948;4.706;2023-03-01T07:55:32;0.30;99.90
24146;DHT22;12308;50.948;4.706;2023-03-01T07:57:58;0.30;99.90
24146;DHT22;12308;50.948;4.706;2023-03-01T08:00:23;0.30;99.90
24146;DHT22;12308;50.948;4.706;2023-03-01T08:02:49;0.30;99.90
24146;DHT22;12308;50.948;4.706;2023-03-01T08:05:15;0.20;99.90
24146;DHT22;12308;50.948;4.706;2023-03-01T08:07:41;0.30;99.90
24146;DHT22;12308;50.948;4.706;2023-03-01T08:10:07;0.40;99.90
24146;DHT22;12308;50.948;4.706;2023-03-01T08:12:33;0.40;99.90
24146;DHT22;12308;50.948;4.706;2023-03-01T08:14:58;0.50;99.90
24146;DHT22;12308;50.948;4.706;2023-03-01T08:17:24;0.50;99.90
24146;DHT22;12308;50.948;4.706;2023-03-01T08:19:49;0.60;99.90
24146;DHT22;12308;50.948;4.706;2023-03-01T08:22:16;0.70;99.90
24146;DHT22;12308;50.948;4.706;2023-03-01T08:24:41;0.80;99.90
24146;DHT22;12308;50.948;4.706;2023-03-01T08:27:07;0.80;99.90
24146;DHT22;12308;50.948;4.706;2023-03-01T08:29:33;0.90;99.90
24146;DHT22;12308;50.948;4.706;2023-03-01T08:31:59;0.90;99.90
24146;DHT22;12308;50.948;4.706;2023-03-01T08:34:25;1.10;99.90
24146;DHT22;12308;50.948;4.706;2023-03-01T08:36:50;1.20;99.90
24146;DHT22;12308;50.948;4.706;2023-03-01T08:39:18;1.30;99.90
24146;DHT22;12308;50.948;4.706;2023-03-01T08:41:45;1.30;99.90
24146;DHT22;12308;50.948;4.706;2023-03-01T08:44:13;1.40;99.90
24146;DHT22;12308;50.948;4.706;2023-03-01T08:46:40;1.50;99.90
24146;DHT22;12308;50.948;4.706;2023-03-01T08:49:17;1.50;99.90
24146;DHT22;12308;50.948;4.706;2023-03-01T08:51:45;1.50;99.90
24146;DHT22;12308;50.948;4.706;2023-03-01T08:54:20;1.60;99.90
24146;DHT22;12308;50.948;4.706;2023-03-01T08:56:46;1.70;99.90
24146;DHT22;12308;50.948;4.706;2023-03-01T08:59:13;1.80;99.90
24146;DHT22;12308;50.948;4.706;2023-03-01T09:01:38;1.80;99.90
24146;DHT22;12308;50.948;4.706;2023-03-01T09:04:05;1.80;99.90
24146;DHT22;12308;50.948;4.706;2023-03-01T09:06:35;1.90;99.90
24146;DHT22;12308;50.948;4.706;2023-03-01T09:09:02;1.90;99.90
24146;DHT22;12308;50.948;4.706;2023-03-01T09:11:28;2.10;99.90
24146;DHT22;12308;50.948;4.706;2023-03-01T09:13:54;2.10;99.90
24146;DHT22;12308;50.948;4.706;2023-03-01T09:16:21;2.30;99.90
24146;DHT22;12308;50.948;4.706;2023-03-01T09:18:52;2.40;99.90
24146;DHT22;12308;50.948;4.706;2023-03-01T09:21:18;2.50;99.90
24146;DHT22;12308;50.948;4.706;2023-03-01T09:23:47;2.60;99.90
24146;DHT22;12308;50.948;4.706;2023-03-01T09:26:16;2.70;99.90
24146;DHT22;12308;50.948;4.706;2023-03-01T09:28:45;2.90;99.90
24146;DHT22;12308;50.948;4.706;2023-03-01T09:31:11;2.90;99.90
24146;DHT22;12308;50.948;4.706;2023-03-01T09:33:40;3.00;99.90
24146;DHT22;12308;50.948;4.706;2023-03-01T09:36:10;3.10;99.90
24146;DHT22;12308;50.948;4.706;2023-03-01T09:38:36;3.10;99.90
24146;DHT22;12308;50.948;4.706;2023-03-01T09:41:01;3.00;99.90
24146;DHT22;12308;50.948;4.706;2023-03-01T09:46:04;3.20;99.90
24146;DHT22;12308;50.948;4.706;2023-03-01T09:48:37;3.30;99.90
24146;DHT22;12308;50.948;4.706;2023-03-01T09:51:12;3.30;99.90
24146;DHT22;12308;50.948;4.706;2023-03-01T09:53:40;3.30;99.90
24146;DHT22;12308;50.948;4.706;2023-03-01T09:56:15;3.40;99.90
24146;DHT22;12308;50.948;4.706;2023-03-01T10:06:52;3.90;99.90
24146;DHT22;12308;50.948;4.706;2023-03-01T10:09:21;3.90;99.90
24146;DHT22;12308;50.948;4.706;2023-03-01T10:11:53;3.90;99.90
24146;DHT22;12308;50.948;4.706;2023-03-01T10:14:53;4.00;99.90
24146;DHT22;12308;50.948;4.706;2023-03-01T10:17:50;4.10;99.90
24146;DHT22;12308;50.948;4.706;2023-03-01T10:20:26;4.20;99.90
24146;DHT22;12308;50.948;4.706;2023-03-01T10:22:55;4.20;99.90
24146;DHT22;12308;50.948;4.706;2023-03-01T10:31:25;4.50;99.90
24146;DHT22;12308;50.948;4.706;2023-03-01T10:33:53;4.50;99.90
24146;DHT22;12308;50.948;4.706;2023-03-01T10:36:21;4.50;99.90
24146;DHT22;12308;50.948;4.706;2023-03-01T10:38:52;4.50;99.90
24146;DHT22;12308;50.948;4.706;2023-03-01T10:41:26;4.50;99.90
24146;DHT22;12308;50.948;4.706;2023-03-01T10:43:57;4.50;99.90
24146;DHT22;12308;50.948;4.706;2023-03-01T10:46:31;4.50;99.90
24146;DHT22;12308;50.948;4.706;2023-03-01T10:49:22;4.50;99.90
24146;DHT22;12308;50.948;4.706;2023-03-01T10:51:50;4.60;99.90
24146;DHT22;12308;50.948;4.706;2023-03-01T10:57:01;4.70;99.90
24146;DHT22;12308;50.948;4.706;2023-03-01T10:59:32;4.80;99.90
24146;DHT22;12308;50.948;4.706;2023-03-01T11:02:28;4.90;99.90
24146;DHT22;12308;50.948;4.706;2023-03-01T11:05:03;4.90;99.90
24146;DHT22;12308;50.948;4.706;2023-03-01T11:10:24;5.00;99.90
24146;DHT22;12308;50.948;4.706;2023-03-01T11:12:52;5.00;99.90
24146;DHT22;12308;50.948;4.706;2023-03-01T11:15:26;5.00;99.90
24146;DHT22;12308;50.948;4.706;2023-03-01T11:17:54;5.00;99.90
24146;DHT22;12308;50.948;4.706;2023-03-01T11:23:13;5.30;99.90
24146;DHT22;12308;50.948;4.706;2023-03-01T11:25:42;5.30;99.90
24146;DHT22;12308;50.948;4.706;2023-03-01T11:28:14;5.30;99.90
24146;DHT22;12308;50.948;4.706;2023-03-01T11:33:43;5.50;99.90
24146;DHT22;12308;50.948;4.706;2023-03-01T11:39:31;5.60;99.90
24146;DHT22;12308;50.948;4.706;2023-03-01T11:42:20;5.50;99.90
24146;DHT22;12308;50.948;4.706;2023-03-01T11:44:50;5.60;99.90
24146;DHT22;12308;50.948;4.706;2023-03-01T11:47:55;5.70;99.90
24146;DHT22;12308;50.948;4.706;2023-03-01T11:50:49;5.80;99.90
24146;DHT22;12308;50.948;4.706;2023-03-01T11:56:16;6.10;99.90
24146;DHT22;12308;50.948;4.706;2023-03-01T11:59:07;6.00;99.90
24146;DHT22;12308;50.948;4.706;2023-03-01T12:01:37;6.10;99.90
24146;DHT22;12308;50.948;4.706;2023-03-01T12:09:27;6.00;99.90
24146;DHT22;12308;50.948;4.706;2023-03-01T12:22:32;6.40;99.90
24146;DHT22;12308;50.948;4.706;2023-03-01T12:42:01;6.40;99.90
24146;DHT22;12308;50.948;4.706;2023-03-01T12:45:06;6.30;99.90
24146;DHT22;12308;50.948;4.706;2023-03-01T12:50:37;6.40;99.90
24146;DHT22;12308;50.948;4.706;2023-03-01T12:53:04;6.40;99.90
24146;DHT22;12308;50.948;4.706;2023-03-01T12:55:36;6.40;99.90
24146;DHT22;12308;50.948;4.706;2023-03-01T13:15:26;6.70;99.90
24146;DHT22;12308;50.948;4.706;2023-03-01T13:20:45;6.70;99.90
24146;DHT22;12308;50.948;4.706;2023-03-01T13:26:15;6.80;99.90
24146;DHT22;12308;50.948;4.706;2023-03-01T13:34:00;7.00;99.90
24146;DHT22;12308;50.948;4.706;2023-03-01T13:39:26;7.00;99.90
24146;DHT22;12308;50.948;4.706;2023-03-01T13:41:54;7.00;99.90
24146;DHT22;12308;50.948;4.706;2023-03-01T13:46:51;7.10;99.90
24146;DHT22;12308;50.948;4.706;2023-03-01T13:49:23;7.10;99.90
24146;DHT22;12308;50.948;4.706;2023-03-01T13:51:50;7.20;99.90
24146;DHT22;12308;50.948;4.706;2023-03-01T13:54:31;7.30;99.90
24146;DHT22;12308;50.948;4.706;2023-03-01T13:56:59;7.30;99.90
24146;DHT22;12308;50.948;4.706;2023-03-01T13:59:25;7.30;99.90
24146;DHT22;12308;50.948;4.706;2023-03-01T14:01:57;7.30;99.90
24146;DHT22;12308;50.948;4.706;2023-03-01T14:04:32;7.30;99.90
24146;DHT22;12308;50.948;4.706;2023-03-01T14:07:11;7.20;99.90
24146;DHT22;12308;50.948;4.706;2023-03-01T14:09:40;7.20;99.90
24146;DHT22;12308;50.948;4.706;2023-03-01T14:15:04;7.20;99.90
24146;DHT22;12308;50.948;4.706;2023-03-01T14:20:18;7.40;99.90
24146;DHT22;12308;50.948;4.706;2023-03-01T14:22:45;7.50;99.90
24146;DHT22;12308;50.948;4.706;2023-03-01T14:28:20;7.30;99.90
24146;DHT22;12308;50.948;4.706;2023-03-01T14:30:49;7.30;99.90
24146;DHT22;12308;50.948;4.706;2023-03-01T14:33:31;7.40;99.90
24146;DHT22;12308;50.948;4.706;2023-03-01T14:38:35;7.40;99.90
24146;DHT22;12308;50.948;4.706;2023-03-01T14:41:05;7.50;99.90
24146;DHT22;12308;50.948;4.706;2023-03-01T14:43:31;7.60;99.90
24146;DHT22;12308;50.948;4.706;2023-03-01T14:45:58;7.70;99.90
24146;DHT22;12308;50.948;4.706;2023-03-01T14:48:23;7.70;99.90
24146;DHT22;12308;50.948;4.706;2023-03-01T14:50:50;7.80;99.90
24146;DHT22;12308;50.948;4.706;2023-03-01T14:53:23;7.70;99.90
24146;DHT22;12308;50.948;4.706;2023-03-01T14:55:52;7.70;99.90
24146;DHT22;12308;50.948;4.706;2023-03-01T14:58:21;7.70;99.90
24146;DHT22;12308;50.948;4.706;2023-03-01T15:00:56;7.60;99.90
24146;DHT22;12308;50.948;4.706;2023-03-01T15:03:35;7.50;99.90
24146;DHT22;12308;50.948;4.706;2023-03-01T15:06:04;7.50;99.90
24146;DHT22;12308;50.948;4.706;2023-03-01T15:08:31;7.60;99.90
24146;DHT22;12308;50.948;4.706;2023-03-01T15:11:15;7.50;99.90
24146;DHT22;12308;50.948;4.706;2023-03-01T15:13:42;7.60;99.90
24146;DHT22;12308;50.948;4.706;2023-03-01T15:16:11;7.60;99.90
24146;DHT22;12308;50.948;4.706;2023-03-01T15:18:37;7.70;99.90
24146;DHT22;12308;50.948;4.706;2023-03-01T15:21:22;7.70;99.90
24146;DHT22;12308;50.948;4.706;2023-03-01T15:24:08;7.70;99.90
24146;DHT22;12308;50.948;4.706;2023-03-01T15:27:05;7.70;99.90
24146;DHT22;12308;50.948;4.706;2023-03-01T15:29:33;7.70;99.90
24146;DHT22;12308;50.948;4.706;2023-03-01T15:34:54;7.80;99.90
24146;DHT22;12308;50.948;4.706;2023-03-01T15:42:43;7.90;99.90
24146;DHT22;12308;50.948;4.706;2023-03-01T15:47:47;7.80;99.90
24146;DHT22;12308;50.948;4.706;2023-03-01T15:50:20;7.70;99.90
24146;DHT22;12308;50.948;4.706;2023-03-01T15:52:46;7.60;99.90
24146;DHT22;12308;50.948;4.706;2023-03-01T15:57:49;7.50;99.90
24146;DHT22;12308;50.948;4.706;2023-03-01T16:00:16;7.60;99.90
24146;DHT22;12308;50.948;4.706;2023-03-01T16:02:43;7.60;99.90
24146;DHT22;12308;50.948;4.706;2023-03-01T16:07:48;7.60;99.90
24146;DHT22;12308;50.948;4.706;2023-03-01T16:10:14;7.60;99.90
24146;DHT22;12308;50.948;4.706;2023-03-01T16:12:40;7.70;99.90
24146;DHT22;12308;50.948;4.706;2023-03-01T16:15:17;7.70;99.90
24146;DHT22;12308;50.948;4.706;2023-03-01T16:17:43;7.70;99.90
24146;DHT22;12308;50.948;4.706;2023-03-01T16:20:09;7.70;99.90
24146;DHT22;12308;50.948;4.706;2023-03-01T16:22:35;7.70;99.90
24146;DHT22;12308;50.948;4.706;2023-03-01T16:25:01;7.60;99.90
24146;DHT22;12308;50.948;4.706;2023-03-01T16:27:27;7.40;99.90
24146;DHT22;12308;50.948;4.706;2023-03-01T16:29:53;7.40;99.90
24146;DHT22;12308;50.948;4.706;2023-03-01T16:32:19;7.50;99.90
24146;DHT22;12308;50.948;4.706;2023-03-01T16:34:45;7.40;99.90
24146;DHT22;12308;50.948;4.706;2023-03-01T16:37:13;7.40;99.90
24146;DHT22;12308;50.948;4.706;2023-03-01T16:39:38;7.40;99.90
24146;DHT22;12308;50.948;4.706;2023-03-01T16:42:04;7.40;99.90
24146;DHT22;12308;50.948;4.706;2023-03-01T16:44:30;7.50;99.90
24146;DHT22;12308;50.948;4.706;2023-03-01T16:46:55;7.60;99.90
24146;DHT22;12308;50.948;4.706;2023-03-01T16:49:21;7.40;99.90
24146;DHT22;12308;50.948;4.706;2023-03-01T16:51:47;7.40;99.90
24146;DHT22;12308;50.948;4.706;2023-03-01T16:54:12;7.30;99.90
24146;DHT22;12308;50.948;4.706;2023-03-01T16:56:38;7.40;99.90
24146;DHT22;12308;50.948;4.706;2023-03-01T16:59:06;7.40;99.90
24146;DHT22;12308;50.948;4.706;2023-03-01T17:01:32;7.40;99.90
24146;DHT22;12308;50.948;4.706;2023-03-01T17:04:06;7.30;99.90
24146;DHT22;12308;50.948;4.706;2023-03-01T17:06:32;7.20;99.90
24146;DHT22;12308;50.948;4.706;2023-03-01T17:08:58;7.10;99.90
24146;DHT22;12308;50.948;4.706;2023-03-01T17:11:24;7.00;99.90
24146;DHT22;12308;50.948;4.706;2023-03-01T17:13:50;7.00;99.90
24146;DHT22;12308;50.948;4.706;2023-03-01T17:16:18;6.90;99.90
24146;DHT22;12308;50.948;4.706;2023-03-01T17:18:45;7.00;99.90
24146;DHT22;12308;50.948;4.706;2023-03-01T17:21:11;7.00;99.90
24146;DHT22;12308;50.948;4.706;2023-03-01T17:23:40;6.90;99.90
24146;DHT22;12308;50.948;4.706;2023-03-01T17:26:06;6.80;99.90
24146;DHT22;12308;50.948;4.706;2023-03-01T17:28:33;6.70;99.90
24146;DHT22;12308;50.948;4.706;2023-03-01T17:31:00;6.60;99.90
24146;DHT22;12308;50.948;4.706;2023-03-01T17:33:27;6.60;99.90
24146;DHT22;12308;50.948;4.706;2023-03-01T17:35:55;6.60;99.90
24146;DHT22;12308;50.948;4.706;2023-03-01T17:38:21;6.60;99.90
24146;DHT22;12308;50.948;4.706;2023-03-01T17:40:46;6.60;99.90
24146;DHT22;12308;50.948;4.706;2023-03-01T17:43:14;6.60;99.90
24146;DHT22;12308;50.948;4.706;2023-03-01T17:45:40;6.50;99.90
24146;DHT22;12308;50.948;4.706;2023-03-01T17:48:09;6.50;99.90
24146;DHT22;12308;50.948;4.706;2023-03-01T17:50:36;6.50;99.90
24146;DHT22;12308;50.948;4.706;2023-03-01T17:53:02;6.50;99.90
24146;DHT22;12308;50.948;4.706;2023-03-01T17:55:33;6.40;99.90
24146;DHT22;12308;50.948;4.706;2023-03-01T17:57:59;6.40;99.90
24146;DHT22;12308;50.948;4.706;2023-03-01T18:00:24;6.40;99.90
24146;DHT22;12308;50.948;4.706;2023-03-01T18:02:50;6.30;99.90
24146;DHT22;12308;50.948;4.706;2023-03-01T18:05:18;6.20;99.90